sensor_id;sensor_type;location;lat;lon;timestamp;temperature;humidity
35678;DHT22;21791;42.828;74.582;2023-02-12T00:01:11;-6.80;99.90
35678;DHT22;21791;42.828;74.582;2023-02-12T00:03:39;-6.70;99.90
35678;DHT22;21791;42.828;74.582;2023-02-12T00:06:07;-6.30;99.90
35678;DHT22;21791;42.828;74.582;2023-02-12T00:08:34;-6.10;99.90
35678;DHT22;21791;42.828;74.582;2023-02-12T00:11:13;-6.00;99.90
35678;DHT22;21791;42.828;74.582;2023-02-12T00:13:40;-6.00;99.90
35678;DHT22;21791;42.828;74.582;2023-02-12T00:16:09;-6.00;99.90
35678;DHT22;21791;42.828;74.582;2023-02-12T00:18:36;-6.20;99.90
35678;DHT22;21791;42.828;74.582;2023-02-12T00:21:03;-6.60;99.90
35678;DHT22;21791;42.828;74.582;2023-02-12T00:23:30;-6.80;99.90
35678;DHT22;21791;42.828;74.582;2023-02-12T00:25:56;-6.90;99.90
35678;DHT22;21791;42.828;74.582;2023-02-12T00:28:23;-6.90;99.90
35678;DHT22;21791;42.828;74.582;2023-02-12T00:30:49;-6.90;99.90
35678;DHT22;21791;42.828;74.582;2023-02-12T00:33:16;-6.90;99.90
35678;DHT22;21791;42.828;74.582;2023-02-12T00:35:43;-6.90;99.90
35678;DHT22;21791;42.828;74.582;2023-02-12T00:38:09;-6.90;99.90
35678;DHT22;21791;42.828;74.582;2023-02-12T00:40:39;-6.90;99.90
35678;DHT22;21791;42.828;74.582;2023-02-12T00:43:06;-7.00;99.90
35678;DHT22;21791;42.828;74.582;2023-02-12T00:45:32;-7.10;99.90
35678;DHT22;21791;42.828;74.582;2023-02-12T00:47:58;-7.10;99.90
35678;DHT22;21791;42.828;74.582;2023-02-12T00:50:25;-7.10;99.90
35678;DHT22;21791;42.828;74.582;2023-02-12T00:52:51;-7.30;99.90
35678;DHT22;21791;42.828;74.582;2023-02-12T00:55:18;-7.50;99.90
35678;DHT22;21791;42.828;74.582;2023-02-12T00:57:45;-7.70;99.90
35678;DHT22;21791;42.828;74.582;2023-02-12T01:00:12;-7.80;99.90
35678;DHT22;21791;42.828;74.582;2023-02-12T01:02:39;-7.90;99.90
35678;DHT22;21791;42.828;74.582;2023-02-12T01:05:05;-8.10;99.90
35678;DHT22;21791;42.828;74.582;2023-02-12T01:07:32;-8.10;99.90
35678;DHT22;21791;42.828;74.582;2023-02-12T01:09:58;-8.00;99.90
35678;DHT22;21791;42.828;74.582;2023-02-12T01:12:25;-7.80;99.90
35678;DHT22;21791;42.828;74.582;2023-02-12T01:14:52;-7.90;99.90
35678;DHT22;21791;42.828;74.582;2023-02-12T01:17:18;-7.90;99.90
35678;DHT22;21791;42.828;74.582;2023-02-12T01:19:45;-8.00;99.90
35678;DHT22;21791;42.828;74.582;2023-02-12T01:22:11;-8.00;99.90
35678;DHT22;21791;42.828;74.582;2023-02-12T01:24:38;-8.00;99.90
35678;DHT22;21791;42.828;74.582;2023-02-12T01:27:04;-8.20;99.90
35678;DHT22;21791;42.828;74.582;2023-02-12T01:29:30;-8.20;99.90
35678;DHT22;21791;42.828;74.582;2023-02-12T01:31:56;-8.20;99.90
35678;DHT22;21791;42.828;74.582;2023-02-12T01:34:23;-8.20;99.90
35678;DHT22;21791;42.828;74.582;2023-02-12T01:36:49;-8.30;99.90
35678;DHT22;21791;42.828;74.582;2023-02-12T01:39:16;-8.30;99.90
35678;DHT22;21791;42.828;74.582;2023-02-12T01:41:43;-8.50;99.90
35678;DHT22;21791;42.828;74.582;2023-02-12T01:44:14;-8.50;99.90
35678;DHT22;21791;42.828;74.582;2023-02-12T01:46:42;-8.40;99.90
35678;DHT22;21791;42.828;74.582;2023-02-12T01:49:19;-8.50;99.90
35678;DHT22;21791;42.828;74.582;2023-02-12T01:51:49;-8.60;99.90
35678;DHT22;21791;42.828;74.582;2023-02-12T01:54:19;-8.80;99.90
35678;DHT22;21791;42.828;74.582;2023-02-12T01:56:46;-9.00;99.90
35678;DHT22;21791;42.828;74.582;2023-02-12T01:59:15;-9.00;99.90
35678;DHT22;21791;42.828;74.582;2023-02-12T02:01:42;-9.10;99.90
35678;DHT22;21791;42.828;74.582;2023-02-12T02:04:14;-9.10;99.90
35678;DHT22;21791;42.828;74.582;2023-02-12T02:06:51;-9.10;99.90
35678;DHT22;21791;42.828;74.582;2023-02-12T02:09:19;-9.00;99.90
35678;DHT22;21791;42.828;74.582;2023-02-12T02:11:46;-9.00;99.90
35678;DHT22;21791;42.828;74.582;2023-02-12T02:14:31;-8.90;99.90
35678;DHT22;21791;42.828;74.582;2023-02-12T02:22:19;-8.90;99.90
35678;DHT22;21791;42.828;74.582;2023-02-12T02:25:14;-8.60;99.90
35678;DHT22;21791;42.828;74.582;2023-02-12T02:36:02;-8.40;99.90
35678;DHT22;21791;42.828;74.582;2023-02-12T02:38:39;-8.30;99.90
35678;DHT22;21791;42.828;74.582;2023-02-12T02:42:07;-8.30;99.90
35678;DHT22;21791;42.828;74.582;2023-02-12T02:44:23;-8.10;99.90
35678;DHT22;21791;42.828;74.582;2023-02-12T02:46:53;-8.00;99.90
35678;DHT22;21791;42.828;74.582;2023-02-12T02:49:32;-7.80;99.90
35678;DHT22;21791;42.828;74.582;2023-02-12T02:52:08;-7.70;99.90
35678;DHT22;21791;42.828;74.582;2023-02-12T02:54:49;-7.50;99.90
35678;DHT22;21791;42.828;74.582;2023-02-12T02:57:25;-7.40;99.90
35678;DHT22;21791;42.828;74.582;2023-02-12T03:00:03;-7.30;99.90
35678;DHT22;21791;42.828;74.582;2023-02-12T03:02:37;-7.30;99.90
35678;DHT22;21791;42.828;74.582;2023-02-12T03:05:09;-7.20;99.90
35678;DHT22;21791;42.828;74.582;2023-02-12T03:07:40;-7.00;99.90
35678;DHT22;21791;42.828;74.582;2023-02-12T03:10:21;-6.90;99.90
35678;DHT22;21791;42.828;74.582;2023-02-12T03:16:02;-6.50;99.90
35678;DHT22;21791;42.828;74.582;2023-02-12T03:19:13;-6.40;99.90
35678;DHT22;21791;42.828;74.582;2023-02-12T03:22:01;-6.30;99.90
35678;DHT22;21791;42.828;74.582;2023-02-12T03:24:33;-6.10;99.90
35678;DHT22;21791;42.828;74.582;2023-02-12T03:27:19;-5.90;99.90
35678;DHT22;21791;42.828;74.582;2023-02-12T03:29:48;-5.50;99.90
35678;DHT22;21791;42.828;74.582;2023-02-12T03:32:34;-4.40;99.90
35678;DHT22;21791;42.828;74.582;2023-02-12T03:38:29;-2.60;99.90
35678;DHT22;21791;42.828;74.582;2023-02-12T03:41:05;-1.70;99.90
35678;DHT22;21791;42.828;74.582;2023-02-12T03:43:58;-1.00;97.50
35678;DHT22;21791;42.828;74.582;2023-02-12T03:46:40;-0.40;93.90
35678;DHT22;21791;42.828;74.582;2023-02-12T03:49:14;-0.40;92.20
35678;DHT22;21791;42.828;74.582;2023-02-12T03:51:45;0.10;91.00
35678;DHT22;21791;42.828;74.582;2023-02-12T03:54:14;0.50;85.20
35678;DHT22;21791;42.828;74.582;2023-02-12T03:57:18;1.10;81.80
35678;DHT22;21791;42.828;74.582;2023-02-12T03:59:46;-0.20;79.90
35678;DHT22;21791;42.828;74.582;2023-02-12T04:02:14;-0.20;83.10
35678;DHT22;21791;42.828;74.582;2023-02-12T04:04:42;0.80;79.80
35678;DHT22;21791;42.828;74.582;2023-02-12T04:07:09;0.40;80.00
35678;DHT22;21791;42.828;74.582;2023-02-12T04:09:37;0.70;75.60
35678;DHT22;21791;42.828;74.582;2023-02-12T04:12:28;0.60;78.50
35678;DHT22;21791;42.828;74.582;2023-02-12T04:18:12;1.30;71.90
35678;DHT22;21791;42.828;74.582;2023-02-12T04:20:52;0.10;70.70
35678;DHT22;21791;42.828;74.582;2023-02-12T04:32:50;0.10;77.70
35678;DHT22;21791;42.828;74.582;2023-02-12T04:37:41;1.00;72.00
35678;DHT22;21791;42.828;74.582;2023-02-12T04:40:12;1.00;69.60
35678;DHT22;21791;42.828;74.582;2023-02-12T04:42:47;1.20;70.60
35678;DHT22;21791;42.828;74.582;2023-02-12T04:45:21;1.60;67.90
35678;DHT22;21791;42.828;74.582;2023-02-12T04:47:49;1.70;66.20
35678;DHT22;21791;42.828;74.582;2023-02-12T04:50:15;2.00;66.20
35678;DHT22;21791;42.828;74.582;2023-02-12T04:52:42;2.00;62.90
35678;DHT22;21791;42.828;74.582;2023-02-12T04:55:08;0.60;64.90
35678;DHT22;21791;42.828;74.582;2023-02-12T04:57:35;1.60;63.50
35678;DHT22;21791;42.828;74.582;2023-02-12T05:00:02;1.30;62.30
35678;DHT22;21791;42.828;74.582;2023-02-12T05:02:32;0.50;64.50
35678;DHT22;21791;42.828;74.582;2023-02-12T05:04:59;0.80;67.30
35678;DHT22;21791;42.828;74.582;2023-02-12T05:07:25;1.30;67.00
35678;DHT22;21791;42.828;74.582;2023-02-12T05:09:52;1.40;64.90
35678;DHT22;21791;42.828;74.582;2023-02-12T05:12:19;1.80;64.30
35678;DHT22;21791;42.828;74.582;2023-02-12T05:14:45;2.20;63.30
35678;DHT22;21791;42.828;74.582;2023-02-12T05:17:12;2.10;61.60
35678;DHT22;21791;42.828;74.582;2023-02-12T05:19:38;1.70;64.30
35678;DHT22;21791;42.828;74.582;2023-02-12T05:22:05;1.40;62.00
35678;DHT22;21791;42.828;74.582;2023-02-12T05:24:31;2.30;63.60
35678;DHT22;21791;42.828;74.582;2023-02-12T05:26:58;2.70;59.30
35678;DHT22;21791;42.828;74.582;2023-02-12T05:29:24;2.20;59.10
35678;DHT22;21791;42.828;74.582;2023-02-12T05:31:50;0.90;62.70
35678;DHT22;21791;42.828;74.582;2023-02-12T05:34:17;0.30;66.90
35678;DHT22;21791;42.828;74.582;2023-02-12T05:36:44;1.30;68.70
35678;DHT22;21791;42.828;74.582;2023-02-12T05:39:10;1.30;65.60
35678;DHT22;21791;42.828;74.582;2023-02-12T05:41:37;0.20;66.20
35678;DHT22;21791;42.828;74.582;2023-02-12T05:44:04;0.80;67.10
35678;DHT22;21791;42.828;74.582;2023-02-12T05:46:31;0.50;67.30
35678;DHT22;21791;42.828;74.582;2023-02-12T05:48:58;-0.10;67.40
35678;DHT22;21791;42.828;74.582;2023-02-12T05:51:25;1.00;66.10
35678;DHT22;21791;42.828;74.582;2023-02-12T05:53:56;1.90;63.80
35678;DHT22;21791;42.828;74.582;2023-02-12T05:56:35;2.00;61.90
35678;DHT22;21791;42.828;74.582;2023-02-12T05:59:07;1.60;64.50
35678;DHT22;21791;42.828;74.582;2023-02-12T06:01:37;2.40;65.20
35678;DHT22;21791;42.828;74.582;2023-02-12T06:04:06;2.50;62.70
35678;DHT22;21791;42.828;74.582;2023-02-12T06:06:33;2.40;59.10
35678;DHT22;21791;42.828;74.582;2023-02-12T06:09:00;2.40;62.70
35678;DHT22;21791;42.828;74.582;2023-02-12T06:11:27;0.80;62.30
35678;DHT22;21791;42.828;74.582;2023-02-12T06:13:54;0.60;64.00
35678;DHT22;21791;42.828;74.582;2023-02-12T06:16:24;0.90;64.50
35678;DHT22;21791;42.828;74.582;2023-02-12T06:18:52;0.80;66.30
35678;DHT22;21791;42.828;74.582;2023-02-12T06:21:20;1.50;66.70
35678;DHT22;21791;42.828;74.582;2023-02-12T06:23:50;2.40;62.20
35678;DHT22;21791;42.828;74.582;2023-02-12T06:26:21;1.30;60.00
35678;DHT22;21791;42.828;74.582;2023-02-12T06:28:48;1.20;63.90
35678;DHT22;21791;42.828;74.582;2023-02-12T06:31:31;1.30;64.70
35678;DHT22;21791;42.828;74.582;2023-02-12T06:34:01;1.80;61.50
35678;DHT22;21791;42.828;74.582;2023-02-12T06:36:28;1.80;62.30
35678;DHT22;21791;42.828;74.582;2023-02-12T06:38:54;0.80;63.70
35678;DHT22;21791;42.828;74.582;2023-02-12T06:41:22;0.80;66.10
35678;DHT22;21791;42.828;74.582;2023-02-12T06:43:49;1.00;68.90
35678;DHT22;21791;42.828;74.582;2023-02-12T06:46:15;0.20;71.20
35678;DHT22;21791;42.828;74.582;2023-02-12T06:48:42;0.70;68.80
35678;DHT22;21791;42.828;74.582;2023-02-12T06:53:36;1.50;65.90
35678;DHT22;21791;42.828;74.582;2023-02-12T06:56:05;1.20;64.60
35678;DHT22;21791;42.828;74.582;2023-02-12T06:58:32;2.00;63.30
35678;DHT22;21791;42.828;74.582;2023-02-12T07:03:41;1.80;64.40
35678;DHT22;21791;42.828;74.582;2023-02-12T07:06:09;1.50;68.40
35678;DHT22;21791;42.828;74.582;2023-02-12T07:08:36;2.20;62.90
35678;DHT22;21791;42.828;74.582;2023-02-12T07:11:03;2.40;63.40
35678;DHT22;21791;42.828;74.582;2023-02-12T07:13:30;1.90;64.80
35678;DHT22;21791;42.828;74.582;2023-02-12T07:16:19;1.50;65.00
35678;DHT22;21791;42.828;74.582;2023-02-12T07:18:49;1.20;64.60
35678;DHT22;21791;42.828;74.582;2023-02-12T07:21:16;1.10;67.70
35678;DHT22;21791;42.828;74.582;2023-02-12T07:23:48;1.30;67.30
35678;DHT22;21791;42.828;74.582;2023-02-12T07:26:14;0.60;67.80
35678;DHT22;21791;42.828;74.582;2023-02-12T07:28:42;0.20;66.40
35678;DHT22;21791;42.828;74.582;2023-02-12T07:31:17;0.10;69.40
35678;DHT22;21791;42.828;74.582;2023-02-12T07:33:44;0.50;72.30
35678;DHT22;21791;42.828;74.582;2023-02-12T07:36:13;1.10;70.60
35678;DHT22;21791;42.828;74.582;2023-02-12T07:38:40;1.40;65.50
35678;DHT22;21791;42.828;74.582;2023-02-12T07:41:16;0.50;68.10
35678;DHT22;21791;42.828;74.582;2023-02-12T07:43:45;1.40;68.70
35678;DHT22;21791;42.828;74.582;2023-02-12T07:46:17;0.80;71.80
35678;DHT22;21791;42.828;74.582;2023-02-12T07:48:44;1.30;69.60
35678;DHT22;21791;42.828;74.582;2023-02-12T07:51:14;1.50;67.80
35678;DHT22;21791;42.828;74.582;2023-02-12T07:53:42;1.30;68.40
35678;DHT22;21791;42.828;74.582;2023-02-12T07:56:16;1.10;70.50
35678;DHT22;21791;42.828;74.582;2023-02-12T07:58:45;0.90;71.40
35678;DHT22;21791;42.828;74.582;2023-02-12T08:01:22;0.00;73.50
35678;DHT22;21791;42.828;74.582;2023-02-12T08:03:50;0.60;74.10
35678;DHT22;21791;42.828;74.582;2023-02-12T08:06:25;1.20;73.10
35678;DHT22;21791;42.828;74.582;2023-02-12T08:08:56;1.40;71.60
35678;DHT22;21791;42.828;74.582;2023-02-12T08:11:23;1.90;72.00
35678;DHT22;21791;42.828;74.582;2023-02-12T08:13:50;2.40;66.50
35678;DHT22;21791;42.828;74.582;2023-02-12T08:16:20;2.30;68.20
35678;DHT22;21791;42.828;74.582;2023-02-12T08:18:47;2.10;70.90
35678;DHT22;21791;42.828;74.582;2023-02-12T08:21:19;1.10;75.00
35678;DHT22;21791;42.828;74.582;2023-02-12T08:23:47;1.90;72.90
35678;DHT22;21791;42.828;74.582;2023-02-12T08:26:37;1.50;73.20
35678;DHT22;21791;42.828;74.582;2023-02-12T08:29:07;1.20;74.80
35678;DHT22;21791;42.828;74.582;2023-02-12T08:31:37;1.10;74.10
35678;DHT22;21791;42.828;74.582;2023-02-12T08:34:04;0.50;78.40
35678;DHT22;21791;42.828;74.582;2023-02-12T08:36:36;1.30;72.60
35678;DHT22;21791;42.828;74.582;2023-02-12T08:39:04;0.30;73.60
35678;DHT22;21791;42.828;74.582;2023-02-12T08:41:31;0.30;75.50
35678;DHT22;21791;42.828;74.582;2023-02-12T08:43:59;0.40;78.80
35678;DHT22;21791;42.828;74.582;2023-02-12T08:46:28;0.40;76.80
35678;DHT22;21791;42.828;74.582;2023-02-12T08:48:58;0.00;74.70
35678;DHT22;21791;42.828;74.582;2023-02-12T08:51:28;0.40;80.50
35678;DHT22;21791;42.828;74.582;2023-02-12T08:53:58;0.60;79.30
35678;DHT22;21791;42.828;74.582;2023-02-12T08:56:26;-0.10;75.20
35678;DHT22;21791;42.828;74.582;2023-02-12T08:58:59;0.40;76.20
35678;DHT22;21791;42.828;74.582;2023-02-12T09:01:29;0.90;75.20
35678;DHT22;21791;42.828;74.582;2023-02-12T09:03:56;0.40;75.80
35678;DHT22;21791;42.828;74.582;2023-02-12T09:06:24;-0.40;78.00
35678;DHT22;21791;42.828;74.582;2023-02-12T09:08:56;0.30;81.40
35678;DHT22;21791;42.828;74.582;2023-02-12T09:11:25;0.20;76.90
35678;DHT22;21791;42.828;74.582;2023-02-12T09:13:57;0.80;78.80
35678;DHT22;21791;42.828;74.582;2023-02-12T09:16:26;1.20;76.90
35678;DHT22;21791;42.828;74.582;2023-02-12T09:18:53;0.70;76.50
35678;DHT22;21791;42.828;74.582;2023-02-12T09:21:20;0.50;80.50
35678;DHT22;21791;42.828;74.582;2023-02-12T09:23:47;1.20;80.80
35678;DHT22;21791;42.828;74.582;2023-02-12T09:26:16;1.40;80.00
35678;DHT22;21791;42.828;74.582;2023-02-12T09:28:46;1.30;75.20
35678;DHT22;21791;42.828;74.582;2023-02-12T09:31:15;0.90;77.60
35678;DHT22;21791;42.828;74.582;2023-02-12T09:33:43;1.00;76.20
35678;DHT22;21791;42.828;74.582;2023-02-12T09:36:15;0.60;75.90
35678;DHT22;21791;42.828;74.582;2023-02-12T09:38:42;0.10;78.20
35678;DHT22;21791;42.828;74.582;2023-02-12T09:44:21;0.10;79.80
35678;DHT22;21791;42.828;74.582;2023-02-12T09:50:26;1.10;79.60
35678;DHT22;21791;42.828;74.582;2023-02-12T09:52:54;1.20;78.10
35678;DHT22;21791;42.828;74.582;2023-02-12T09:55:28;0.00;79.50
35678;DHT22;21791;42.828;74.582;2023-02-12T09:57:55;-0.40;83.00
35678;DHT22;21791;42.828;74.582;2023-02-12T10:00:27;-0.40;85.60
35678;DHT22;21791;42.828;74.582;2023-02-12T10:03:00;-0.40;83.30
35678;DHT22;21791;42.828;74.582;2023-02-12T10:05:35;0.00;83.70
35678;DHT22;21791;42.828;74.582;2023-02-12T10:13:16;-0.30;78.80
35678;DHT22;21791;42.828;74.582;2023-02-12T10:18:57;-0.20;80.60
35678;DHT22;21791;42.828;74.582;2023-02-12T10:26:40;-0.80;87.30
35678;DHT22;21791;42.828;74.582;2023-02-12T10:29:16;-0.50;88.50
35678;DHT22;21791;42.828;74.582;2023-02-12T10:31:54;0.00;86.70
35678;DHT22;21791;42.828;74.582;2023-02-12T10:34:31;-0.30;84.60
35678;DHT22;21791;42.828;74.582;2023-02-12T10:37:04;0.30;88.50
35678;DHT22;21791;42.828;74.582;2023-02-12T10:39:40;0.80;83.10
35678;DHT22;21791;42.828;74.582;2023-02-12T10:42:37;0.70;81.30
35678;DHT22;21791;42.828;74.582;2023-02-12T10:45:10;0.40;85.60
35678;DHT22;21791;42.828;74.582;2023-02-12T10:47:38;0.40;82.80
35678;DHT22;21791;42.828;74.582;2023-02-12T10:50:38;0.10;84.50
35678;DHT22;21791;42.828;74.582;2023-02-12T10:53:03;-0.80;85.80
35678;DHT22;21791;42.828;74.582;2023-02-12T10:55:33;-0.90;88.90
35678;DHT22;21791;42.828;74.582;2023-02-12T10:58:02;-0.60;88.90
35678;DHT22;21791;42.828;74.582;2023-02-12T11:00:32;-0.60;89.80
35678;DHT22;21791;42.828;74.582;2023-02-12T11:05:33;-0.40;90.00
35678;DHT22;21791;42.828;74.582;2023-02-12T11:08:00;-0.60;89.20
35678;DHT22;21791;42.828;74.582;2023-02-12T11:10:38;-0.70;90.60
35678;DHT22;21791;42.828;74.582;2023-02-12T11:13:20;-1.10;91.00
35678;DHT22;21791;42.828;74.582;2023-02-12T11:15:49;-1.40;91.80
35678;DHT22;21791;42.828;74.582;2023-02-12T11:18:24;-1.70;93.40
35678;DHT22;21791;42.828;74.582;2023-02-12T11:21:09;-2.00;95.90
35678;DHT22;21791;42.828;74.582;2023-02-12T11:28:35;-2.00;99.90
35678;DHT22;21791;42.828;74.582;2023-02-12T11:33:41;-2.20;99.60
35678;DHT22;21791;42.828;74.582;2023-02-12T11:36:35;-2.20;99.90
35678;DHT22;21791;42.828;74.582;2023-02-12T11:39:02;-2.30;99.90
35678;DHT22;21791;42.828;74.582;2023-02-12T11:41:39;-2.30;99.90
35678;DHT22;21791;42.828;74.582;2023-02-12T11:47:01;-2.50;99.90
35678;DHT22;21791;42.828;74.582;2023-02-12T11:49:37;-2.50;99.90
35678;DHT22;21791;42.828;74.582;2023-02-12T11:52:04;-2.60;99.90
35678;DHT22;21791;42.828;74.582;2023-02-12T11:54:40;-2.70;99.90
35678;DHT22;21791;42.828;74.582;2023-02-12T11:58:28;-2.70;99.90
35678;DHT22;21791;42.828;74.582;2023-02-12T12:00:37;-2.90;99.90
35678;DHT22;21791;42.828;74.582;2023-02-12T12:03:14;-2.90;99.90
35678;DHT22;21791;42.828;74.582;2023-02-12T12:05:48;-2.90;99.90
35678;DHT22;21791;42.828;74.582;2023-02-12T12:08:28;-3.00;99.90
35678;DHT22;21791;42.828;74.582;2023-02-12T12:11:21;-3.10;99.90
35678;DHT22;21791;42.828;74.582;2023-02-12T12:16:41;-3.30;99.90
35678;DHT22;21791;42.828;74.582;2023-02-12T12:19:55;-3.50;99.90
35678;DHT22;21791;42.828;74.582;2023-02-12T12:23:41;-3.60;99.90
35678;DHT22;21791;42.828;74.582;2023-02-12T12:28:31;-3.80;99.90
35678;DHT22;21791;42.828;74.582;2023-02-12T12:31:16;-3.90;99.90
35678;DHT22;21791;42.828;74.582;2023-02-12T12:34:04;-4.00;99.90
35678;DHT22;21791;42.828;74.582;2023-02-12T12:47:53;-4.30;99.90
35678;DHT22;21791;42.828;74.582;2023-02-12T12:50:49;-4.40;99.90
35678;DHT22;21791;42.828;74.582;2023-02-12T12:53:27;-4.40;99.90
35678;DHT22;21791;42.828;74.582;2023-02-12T12:58:55;-4.30;99.90
35678;DHT22;21791;42.828;74.582;2023-02-12T13:01:48;-4.30;99.90
35678;DHT22;21791;42.828;74.582;2023-02-12T13:15:58;-4.80;99.90
35678;DHT22;21791;42.828;74.582;2023-02-12T13:19:13;-4.90;99.90
35678;DHT22;21791;42.828;74.582;2023-02-12T13:21:56;-4.90;99.90
35678;DHT22;21791;42.828;74.582;2023-02-12T13:24:46;-4.70;99.90
35678;DHT22;21791;42.828;74.582;2023-02-12T13:27:27;-4.60;99.90
35678;DHT22;21791;42.828;74.582;2023-02-12T13:32:34;-4.10;99.90
35678;DHT22;21791;42.828;74.582;2023-02-12T13:35:05;-4.00;99.90
35678;DHT22;21791;42.828;74.582;2023-02-12T13:37:40;-4.10;99.90
35678;DHT22;21791;42.828;74.582;2023-02-12T13:40:19;-4.20;99.90
35678;DHT22;21791;42.828;74.582;2023-02-12T13:48:34;-4.30;99.90
35678;DHT22;21791;42.828;74.582;2023-02-12T13:51:39;-4.50;99.90
35678;DHT22;21791;42.828;74.582;2023-02-12T13:54:16;-4.30;99.90
35678;DHT22;21791;42.828;74.582;2023-02-12T13:56:48;-4.20;99.90
35678;DHT22;21791;42.828;74.582;2023-02-12T14:05:26;-4.30;99.90
35678;DHT22;21791;42.828;74.582;2023-02-12T14:07:56;-4.30;99.90
35678;DHT22;21791;42.828;74.582;2023-02-12T14:12:52;-4.30;99.90
35678;DHT22;21791;42.828;74.582;2023-02-12T14:15:34;-4.50;99.90
35678;DHT22;21791;42.828;74.582;2023-02-12T14:20:33;-4.80;99.90
35678;DHT22;21791;42.828;74.582;2023-02-12T14:28:30;-5.00;99.90
35678;DHT22;21791;42.828;74.582;2023-02-12T14:33:49;-5.00;99.90
35678;DHT22;21791;42.828;74.582;2023-02-12T14:36:39;-4.90;99.90
35678;DHT22;21791;42.828;74.582;2023-02-12T14:46:53;-4.60;99.90
35678;DHT22;21791;42.828;74.582;2023-02-12T14:52:05;-4.60;99.90
35678;DHT22;21791;42.828;74.582;2023-02-12T14:55:04;-4.70;99.90
35678;DHT22;21791;42.828;74.582;2023-02-12T14:57:43;-4.90;99.90
35678;DHT22;21791;42.828;74.582;2023-02-12T15:05:51;-4.80;99.90
35678;DHT22;21791;42.828;74.582;2023-02-12T15:14:05;-5.00;99.90
35678;DHT22;21791;42.828;74.582;2023-02-12T15:22:33;-5.00;99.90
35678;DHT22;21791;42.828;74.582;2023-02-12T15:27:44;-5.00;99.90
35678;DHT22;21791;42.828;74.582;2023-02-12T15:30:24;-5.00;99.90
35678;DHT22;21791;42.828;74.582;2023-02-12T15:32:53;-5.00;99.90
35678;DHT22;21791;42.828;74.582;2023-02-12T15:35:32;-5.20;99.90
35678;DHT22;21791;42.828;74.582;2023-02-12T15:38:00;-5.30;99.90
35678;DHT22;21791;42.828;74.582;2023-02-12T15:40:29;-5.40;99.90
35678;DHT22;21791;42.828;74.582;2023-02-12T15:42:57;-5.50;99.90
35678;DHT22;21791;42.828;74.582;2023-02-12T15:45:26;-5.70;99.90
35678;DHT22;21791;42.828;74.582;2023-02-12T15:48:12;-5.90;99.90
35678;DHT22;21791;42.828;74.582;2023-02-12T15:51:16;-6.00;99.90
35678;DHT22;21791;42.828;74.582;2023-02-12T15:53:46;-6.20;99.90
35678;DHT22;21791;42.828;74.582;2023-02-12T15:56:18;-6.20;99.90
35678;DHT22;21791;42.828;74.582;2023-02-12T15:58:48;-6.20;99.90
35678;DHT22;21791;42.828;74.582;2023-02-12T16:01:23;-6.20;99.90
35678;DHT22;21791;42.828;74.582;2023-02-12T16:03:52;-6.40;99.90
35678;DHT22;21791;42.828;74.582;2023-02-12T16:06:20;-6.40;99.90
35678;DHT22;21791;42.828;74.582;2023-02-12T16:09:07;-6.70;99.90
35678;DHT22;21791;42.828;74.582;2023-02-12T16:11:36;-6.80;99.90
35678;DHT22;21791;42.828;74.582;2023-02-12T16:14:18;-6.90;99.90
35678;DHT22;21791;42.828;74.582;2023-02-12T16:16:49;-7.00;99.90
35678;DHT22;21791;42.828;74.582;2023-02-12T16:19:21;-7.20;99.90
35678;DHT22;21791;42.828;74.582;2023-02-12T16:22:07;-7.30;99.90
35678;DHT22;21791;42.828;74.582;2023-02-12T16:24:44;-7.30;99.90
35678;DHT22;21791;42.828;74.582;2023-02-12T16:29:48;-7.50;99.90
35678;DHT22;21791;42.828;74.582;2023-02-12T16:32:32;-7.40;99.90
35678;DHT22;21791;42.828;74.582;2023-02-12T16:50:22;-7.40;99.90
35678;DHT22;21791;42.828;74.582;2023-02-12T16:52:59;-7.30;99.90
35678;DHT22;21791;42.828;74.582;2023-02-12T16:55:26;-7.20;99.90
35678;DHT22;21791;42.828;74.582;2023-02-12T16:57:53;-7.00;99.90
35678;DHT22;21791;42.828;74.582;2023-02-12T17:00:19;-7.00;99.90
35678;DHT22;21791;42.828;74.582;2023-02-12T17:02:47;-7.00;99.90
35678;DHT22;21791;42.828;74.582;2023-02-12T17:05:15;-7.10;99.90
35678;DHT22;21791;42.828;74.582;2023-02-12T17:07:43;-7.20;99.90
35678;DHT22;21791;42.828;74.582;2023-02-12T17:10:13;-7.20;99.90
35678;DHT22;21791;42.828;74.582;2023-02-12T17:12:50;-6.90;99.90
35678;DHT22;21791;42.828;74.582;2023-02-12T17:15:23;-6.50;99.90
35678;DHT22;21791;42.828;74.582;2023-02-12T17:17:51;-6.10;99.90
35678;DHT22;21791;42.828;74.582;2023-02-12T17:20:17;-5.80;99.20
35678;DHT22;21791;42.828;74.582;2023-02-12T17:22:49;-5.50;97.60
35678;DHT22;21791;42.828;74.582;2023-02-12T17:25:16;-5.40;95.90
35678;DHT22;21791;42.828;74.582;2023-02-12T17:27:43;-5.50;96.50
35678;DHT22;21791;42.828;74.582;2023-02-12T17:30:15;-5.60;95.50
35678;DHT22;21791;42.828;74.582;2023-02-12T17:32:42;-5.60;94.60
35678;DHT22;21791;42.828;74.582;2023-02-12T17:35:08;-5.60;94.60
35678;DHT22;21791;42.828;74.582;2023-02-12T17:37:35;-5.70;95.40
35678;DHT22;21791;42.828;74.582;2023-02-12T17:40:02;-5.40;93.90
35678;DHT22;21791;42.828;74.582;2023-02-12T17:42:29;-5.20;93.10
35678;DHT22;21791;42.828;74.582;2023-02-12T17:44:55;-5.30;93.00
35678;DHT22;21791;42.828;74.582;2023-02-12T17:47:21;-5.40;93.80
35678;DHT22;21791;42.828;74.582;2023-02-12T17:49:48;-5.50;93.50
35678;DHT22;21791;42.828;74.582;2023-02-12T17:52:15;-5.70;93.40
35678;DHT22;21791;42.828;74.582;2023-02-12T17:54:45;-5.70;93.20
35678;DHT22;21791;42.828;74.582;2023-02-12T17:57:11;-5.70;93.00
35678;DHT22;21791;42.828;74.582;2023-02-12T17:59:40;-5.80;93.90
35678;DHT22;21791;42.828;74.582;2023-02-12T18:02:09;-6.10;94.40
35678;DHT22;21791;42.828;74.582;2023-02-12T18:04:35;-6.40;96.20
35678;DHT22;21791;42.828;74.582;2023-02-12T18:07:03;-6.60;97.50
35678;DHT22;21791;42.828;74.582;2023-02-12T18:09:30;-6.80;97.40
35678;DHT22;21791;42.828;74.582;2023-02-12T18:11:56;-7.00;97.80
35678;DHT22;21791;42.828;74.582;2023-02-12T18:14:23;-7.10;99.40
35678;DHT22;21791;42.828;74.582;2023-02-12T18:16:49;-7.20;99.90
35678;DHT22;21791;42.828;74.582;2023-02-12T18:19:16;-7.10;99.90
35678;DHT22;21791;42.828;74.582;2023-02-12T18:21:43;-7.20;99.90
35678;DHT22;21791;42.828;74.582;2023-02-12T18:24:09;-7.40;99.90
35678;DHT22;21791;42.828;74.582;2023-02-12T18:26:36;-7.40;99.90
35678;DHT22;21791;42.828;74.582;2023-02-12T18:29:03;-7.40;99.90
35678;DHT22;21791;42.828;74.582;2023-02-12T18:31:29;-7.30;99.90
35678;DHT22;21791;42.828;74.582;2023-02-12T18:33:56;-7.00;99.90
35678;DHT22;21791;42.828;74.582;2023-02-12T18:36:22;-6.90;99.90
35678;DHT22;21791;42.828;74.582;2023-02-12T18:38:50;-6.80;99.90
35678;DHT22;21791;42.828;74.582;2023-02-12T18:41:26;-6.50;99.60
35678;DHT22;21791;42.828;74.582;2023-02-12T18:43:52;-6.50;99.00
35678;DHT22;21791;42.828;74.582;2023-02-12T18:46:24;-6.80;99.00
35678;DHT22;21791;42.828;74.582;2023-02-12T18:48:51;-6.90;99.90
35678;DHT22;21791;42.828;74.582;2023-02-12T18:51:21;-7.00;99.90
35678;DHT22;21791;42.828;74.582;2023-02-12T18:53:56;-6.80;99.90